Latest Weather Observations for Rhyll

IDV60801

Issued at 3:05 pm EST Friday 25 April 2014 (issued every 30 minutes, with the page automatically refreshed every 10 minutes)

About weather observations | Map of weather stations | Latest weather observations for VIC | Other Formats
Station Details ID: 086373 Name: RHYLL Lat: -38.46 Lon: 145.31 Height: 13.4 m
Data from the previous 72 hours. | See also: Recent months at Rhyll
Date/Time
EST
Temp
°C
App
Temp
°C
Dew
Point
Rel
Hum
%
Delta-T
°C
Wind Press
QNH
hPa
Press
MSL
hPa
Rain
since 9 am
mm
Dir
 
Spd
km/h
Gust
km/h
Spd
kts
Gust
kts
25/03:00pm 18.4 17.4 10.3 59 4.3 ENE 6 7 3 4 1014.1 1014.1 0.0
25/02:30pm 17.8 15.8 8.6 55 4.7 NNE 9 11 5 6 1014.4 - 0.0
25/02:00pm 17.6 15.6 8.5 55 4.7 NNE 9 13 5 7 1014.9 1014.9 0.0
25/01:30pm 16.7 14.6 8.4 58 4.2 N 9 15 5 8 1015.6 - 0.0
25/01:00pm 15.7 12.8 8.2 61 3.8 N 13 17 7 9 1016.2 1016.2 0.0
25/12:30pm 16.5 13.4 7.2 54 4.6 NNE 13 17 7 9 1016.7 - 0.0
25/12:00pm 17.3 14.0 9.5 60 4.1 ENE 17 20 9 11 1017.4 1017.4 0.0
25/11:30am 16.6 13.4 9.8 64 3.6 ENE 17 20 9 11 1018.3 - 0.0
25/11:00am 15.8 12.2 8.5 62 3.7 ENE 17 20 9 11 1018.7 1018.7 0.0
25/10:30am 15.2 11.0 7.5 60 3.8 NE 19 26 10 14 1019.2 - 0.0
25/10:00am 15.2 12.7 8.0 62 3.6 ENE 11 17 6 9 1019.6 1019.6 0.0
25/09:30am 13.0 12.2 8.1 72 2.4 NNE 2 6 1 3 1020.1 - 0.0
25/09:00am 11.8 10.8 7.5 75 2.1 NNE 2 4 1 2 1020.6 1020.6 0.0
25/08:30am 10.8 9.5 7.7 81 1.5 N 4 6 2 3 1020.8 - 0.0
25/08:00am 10.2 8.4 7.3 82 1.4 NNE 6 9 3 5 1020.9 1020.9 0.0
25/07:30am 10.0 8.1 7.4 84 1.2 NNE 7 11 4 6 1020.7 - 0.0
25/07:00am 9.4 7.6 7.0 85 1.1 NNE 6 7 3 4 1020.8 1020.8 0.0
25/06:30am 9.4 8.0 7.2 86 1.0 N 4 6 2 3 1021.0 - 0.0
25/06:00am 9.5 7.5 6.9 84 1.2 NE 7 9 4 5 1021.0 1021.0 0.0
25/05:30am 8.6 6.3 5.9 83 1.2 ENE 7 13 4 7 1020.9 - 0.0
25/05:00am 9.1 7.1 6.2 82 1.3 N 6 7 3 4 1021.0 1021.0 0.0
25/04:30am 9.1 7.5 6.2 82 1.3 NNW 4 6 2 3 1020.9 - 0.0
25/04:00am 10.2 7.7 6.5 78 1.7 N 9 15 5 8 1020.8 1020.8 0.0
25/03:30am 9.9 6.4 7.3 84 1.2 NE 15 17 8 9 1020.6 - 0.0
25/03:00am 9.8 6.8 7.7 87 1.0 ENE 13 19 7 10 1020.8 1020.8 0.0
25/02:30am 10.0 7.1 6.7 80 1.5 ENE 11 15 6 8 1020.9 - 0.0
25/02:00am 10.8 8.5 7.3 79 1.7 NE 9 13 5 7 1021.2 1021.2 0.0
25/01:30am 11.1 7.8 8.0 81 1.5 NNE 15 19 8 10 1021.4 - 0.0
25/01:00am 11.3 8.0 8.2 81 1.5 NNE 15 20 8 11 1021.5 1021.5 0.0
25/12:30am 11.4 9.5 6.9 74 2.1 NNW 6 13 3 7 1021.4 - 0.0
25/12:00am 10.7 9.5 4.8 67 2.7 WSW 0 0 0 0 1021.4 1021.4 0.0
 
Date/Time
EST
Temp
°C
App
Temp
°C
Dew
Point
Rel
Hum
%
Delta-T
°C
Wind Press
QNH
hPa
Press
MSL
hPa
Rain
since 9 am
mm
Dir
 
Spd
km/h
Gust
km/h
Spd
kts
Gust
kts
24/11:30pm 11.1 8.6 3.6 60 3.3 W 6 7 3 4 1021.5 - 0.0
24/11:00pm 11.0 8.8 3.5 60 3.3 WSW 4 7 2 4 1021.6 1021.6 0.0
24/10:30pm 11.4 8.9 3.7 59 3.4 WSW 6 7 3 4 1021.7 - 0.0
24/10:00pm 11.2 9.1 3.7 60 3.3 WSW 4 7 2 4 1021.7 1021.7 0.0
24/09:30pm 11.6 9.0 3.4 57 3.6 WSW 6 7 3 4 1021.6 - 0.0
24/09:00pm 11.6 9.0 3.4 57 3.6 WSW 6 7 3 4 1021.3 1021.3 0.0
24/08:30pm 11.5 9.0 3.8 59 3.4 SW 6 7 3 4 1021.1 - 0.0
24/08:00pm 11.6 9.0 4.3 61 3.3 SW 7 11 4 6 1020.7 1020.7 0.0
24/07:30pm 11.9 9.3 4.4 60 3.4 SW 7 11 4 6 1020.6 - 0.0
24/07:00pm 12.1 9.2 4.6 60 3.4 SW 9 13 5 7 1020.2 1020.2 0.0
24/06:30pm 12.2 9.6 4.4 59 3.5 SW 7 15 4 8 1019.9 - 0.0
24/06:00pm 12.7 9.1 4.9 59 3.6 SW 13 22 7 12 1019.5 1019.5 0.0
24/05:30pm 12.9 9.4 5.3 60 3.5 SW 13 24 7 13 1019.1 - 0.0
24/05:00pm 13.8 9.5 5.4 57 3.9 SW 17 28 9 15 1018.6 1018.6 0.0
24/04:30pm 14.1 9.7 4.9 54 4.3 SW 17 28 9 15 1018.4 - 0.0
24/04:00pm 14.2 9.9 5.3 55 4.2 SW 17 28 9 15 1018.1 1018.1 0.0
24/03:30pm 14.4 10.2 5.7 56 4.1 SW 17 37 9 20 1017.9 - 0.0
24/03:00pm 14.9 11.3 6.7 58 4.0 WSW 15 28 8 15 1017.5 1017.5 0.0
24/02:30pm 15.1 10.8 7.2 59 3.9 WSW 19 35 10 19 1017.3 - 0.0
24/02:00pm 15.4 10.4 4.8 49 5.0 WSW 20 35 11 19 1017.2 1017.2 0.0
24/01:30pm 14.7 9.9 5.8 55 4.2 WSW 20 35 11 19 1017.1 - 0.0
24/01:00pm 14.8 10.5 5.1 52 4.6 WSW 17 32 9 17 1016.8 1016.8 0.0
24/12:30pm 16.0 11.3 5.0 48 5.2 WSW 19 37 10 20 1016.9 - 0.0
24/12:00pm 15.6 10.7 5.2 50 4.9 WSW 20 41 11 22 1016.8 1016.8 0.0
24/11:30am 15.7 11.4 5.3 50 4.9 WSW 17 30 9 16 1016.7 - 0.0
24/11:00am 14.9 8.8 6.5 57 4.1 SW 28 54 15 29 1016.1 1016.1 0.0
24/10:30am 15.0 10.0 6.3 56 4.2 WSW 22 46 12 25 1015.6 - 0.0
24/10:00am 14.9 9.6 6.7 58 4.0 WSW 24 48 13 26 1015.0 1015.0 0.0
24/09:30am 14.6 10.7 8.5 67 3.1 WSW 19 35 10 19 1014.2 - 0.0
24/09:00am 13.6 10.7 9.6 77 2.0 WSW 15 30 8 16 1013.7 1013.7 1.4
24/08:30am 13.2 12.7 11.9 92 0.7 W 6 11 3 6 1013.2 - 1.0
24/08:00am 12.7 11.0 11.1 90 0.8 W 11 22 6 12 1012.5 1012.5 0.4
24/07:30am 14.3 10.8 10.3 77 2.1 W 19 33 10 18 1011.6 - 0.0
24/07:00am 16.1 12.7 9.3 64 3.5 W 17 33 9 18 1010.6 1010.6 0.0
24/06:30am 16.0 12.8 8.5 61 3.8 NW 15 30 8 16 1010.0 - 0.0
24/06:00am 15.9 10.6 8.4 61 3.8 NNW 26 37 14 20 1009.5 1009.5 0.0
24/05:30am 15.7 11.6 8.0 60 3.9 NW 19 32 10 17 1009.1 - 0.0
24/05:00am 14.8 8.9 9.2 69 2.9 NNW 30 43 16 23 1008.8 1008.8 0.0
24/04:30am 14.8 7.8 8.5 66 3.2 NNW 35 46 19 25 1008.7 - 0.0
24/04:00am 14.8 8.4 8.7 67 3.1 NNW 32 41 17 22 1008.8 1008.8 0.0
24/03:30am 14.6 8.6 8.8 68 2.9 NNW 30 39 16 21 1009.1 - 0.0
24/03:00am 14.7 10.3 9.1 69 2.9 NNW 22 35 12 19 1009.5 1009.5 0.0
24/02:30am 14.2 9.9 9.4 73 2.5 N 22 33 12 18 1009.9 - 0.0
24/02:00am 13.4 8.6 8.7 73 2.4 N 24 30 13 16 1010.1 1010.1 0.0
24/01:30am 13.6 9.2 8.9 73 2.4 N 22 30 12 16 1010.4 - 0.0
24/01:00am 13.8 9.3 8.6 71 2.6 N 22 30 12 16 1010.7 1010.7 0.0
24/12:30am 13.8 10.2 9.8 77 2.1 NNW 19 24 10 13 1011.1 - 0.0
24/12:00am 14.1 10.8 10.9 81 1.7 NNW 19 24 10 13 1011.4 1011.4 0.0
 
Date/Time
EST
Temp
°C
App
Temp
°C
Dew
Point
Rel
Hum
%
Delta-T
°C
Wind Press
QNH
hPa
Press
MSL
hPa
Rain
since 9 am
mm
Dir
 
Spd
km/h
Gust
km/h
Spd
kts
Gust
kts
23/11:30pm 14.1 10.6 10.9 81 1.7 N 20 26 11 14 1011.6 - 0.0
23/11:00pm 14.1 11.1 10.7 80 1.8 N 17 22 9 12 1012.0 1012.0 0.0
23/10:30pm 14.3 12.0 11.6 84 1.4 N 15 17 8 9 1012.4 - 0.0
23/10:00pm 14.4 12.1 11.6 83 1.5 N 15 17 8 9 1012.6 1012.6 0.0
23/09:30pm 13.9 12.6 11.4 85 1.3 N 9 15 5 8 1012.7 - 0.0
23/09:00pm 13.7 13.8 11.4 86 1.2 NNW 2 6 1 3 1012.8 1012.8 0.0
23/08:30pm 13.8 13.2 11.7 87 1.1 N 6 7 3 4 1012.9 - 0.0
23/08:00pm 13.4 12.8 10.4 82 1.6 NNW 4 6 2 3 1013.1 1013.1 0.0
23/07:30pm 14.0 14.0 11.2 83 1.5 N 2 4 1 2 1013.1 - 0.0
23/07:00pm 13.8 14.0 10.4 80 1.8 CALM 0 2 0 1 1013.0 1013.0 0.0
23/06:30pm 13.8 13.0 9.5 75 2.2 NW 4 6 2 3 1013.1 - 0.0
23/06:00pm 13.8 13.5 8.8 72 2.5 CALM 0 4 0 2 1013.2 1013.2 0.0
23/05:30pm 14.8 14.5 8.5 66 3.2 CALM 0 2 0 1 1013.2 - 0.0
23/05:00pm 15.8 14.3 8.5 62 3.7 WNW 6 9 3 5 1013.4 1013.4 0.0
23/04:30pm 16.5 15.6 9.4 63 3.7 WNW 4 9 2 5 1013.4 - 0.0
23/04:00pm 16.3 14.9 8.8 61 3.8 WNW 6 11 3 6 1013.6 1013.6 0.0
23/03:30pm 16.6 14.9 10.0 65 3.5 NNW 9 15 5 8 1013.6 - 0.0
23/03:00pm 16.6 14.6 10.2 66 3.4 NNW 11 17 6 9 1013.6 1013.6 0.0
23/02:30pm 16.8 15.6 9.5 62 3.8 WNW 6 11 3 6 1013.8 - 0.0
23/02:00pm 17.1 15.4 9.8 62 3.8 WNW 9 17 5 9 1014.0 1014.0 0.0
23/01:30pm 17.6 16.4 10.2 62 3.9 WNW 7 17 4 9 1014.3 - 0.0
23/01:00pm 17.8 16.6 10.4 62 3.9 WNW 7 15 4 8 1014.7 1014.7 0.0
23/12:30pm 17.9 16.7 11.5 66 3.5 NNW 9 17 5 9 1015.1 - 0.0
23/12:00pm 17.5 16.2 9.9 61 4.0 WNW 7 13 4 7 1015.7 1015.7 0.0
23/11:30am 17.3 16.2 10.0 62 3.9 NW 6 9 3 5 1015.8 - 0.0
23/11:00am 17.1 16.3 11.2 68 3.2 N 6 9 3 5 1016.0 1016.0 0.0
23/10:30am 16.6 15.5 10.5 67 3.2 N 7 9 4 5 1016.5 - 0.0
23/10:00am 16.7 15.8 10.5 67 3.3 NW 6 9 3 5 1016.7 1016.7 0.0
23/09:30am 15.8 15.0 11.0 73 2.6 NW 6 11 3 6 1016.9 - 0.0
23/09:00am 15.2 15.4 13.1 87 1.2 NW 4 7 2 4 1016.7 1016.7 0.2
23/08:30am 13.9 13.8 12.1 89 1.0 NNW 4 6 2 3 1016.6 - 0.2
23/08:00am 13.2 13.9 12.3 94 0.5 CALM 0 2 0 1 1016.6 1016.6 0.2
23/07:30am 12.9 13.5 12.0 94 0.5 CALM 0 0 0 0 1016.4 - 0.2
23/07:00am 12.4 12.8 11.1 92 0.7 CALM 0 0 0 0 1016.3 1016.3 0.2
23/06:30am 13.3 13.2 12.0 92 0.7 N 4 6 2 3 1016.4 - 0.2
23/06:00am 12.9 12.9 11.0 88 1.0 N 2 6 1 3 1016.3 1016.3 0.2
23/05:30am 13.5 12.1 11.0 85 1.3 NNE 9 13 5 7 1016.2 - 0.2
23/05:00am 13.7 12.9 11.2 85 1.3 NNE 6 7 3 4 1016.2 1016.2 0.2
23/04:30am 13.2 12.9 11.4 89 1.0 NNE 4 7 2 4 1016.0 - 0.2
23/04:00am 13.5 13.2 11.6 88 1.0 NW 4 4 2 2 1016.0 1016.0 0.2
23/03:30am 13.6 13.8 11.7 88 1.0 NNW 2 6 1 3 1016.1 - 0.2
23/03:00am 13.7 14.1 11.2 85 1.3 CALM 0 0 0 0 1016.3 1016.3 0.2
23/02:30am 13.7 14.0 11.0 84 1.4 CALM 0 0 0 0 1016.5 - 0.2
23/02:00am 14.4 14.5 11.4 82 1.6 NW 2 4 1 2 1016.8 1016.8 0.2
23/01:30am 14.4 13.8 10.4 77 2.1 NW 4 6 2 3 1017.0 - 0.2
23/01:00am 14.1 13.6 9.5 74 2.4 W 2 6 1 3 1017.1 1017.1 0.2
23/12:30am 14.1 13.6 9.5 74 2.4 SW 2 4 1 2 1017.2 - 0.2
23/12:00am 14.5 14.1 9.7 73 2.5 SW 2 4 1 2 1017.3 1017.3 0.2
 
Date/Time
EST
Temp
°C
App
Temp
°C
Dew
Point
Rel
Hum
%
Delta-T
°C
Wind Press
QNH
hPa
Press
MSL
hPa
Rain
since 9 am
mm
Dir
 
Spd
km/h
Gust
km/h
Spd
kts
Gust
kts
22/11:30pm 14.5 14.5 9.7 73 2.5 CALM 0 0 0 0 1017.5 - 0.2
22/11:00pm 14.6 14.2 9.6 72 2.6 SW 2 4 1 2 1017.8 1017.8 0.2
22/10:30pm 14.6 13.4 9.6 72 2.6 SW 6 7 3 4 1018.0 - 0.2
22/10:00pm 14.5 13.3 9.5 72 2.6 WSW 6 7 3 4 1018.0 1018.0 0.2
22/09:30pm 13.9 12.6 9.1 73 2.4 WSW 6 7 3 4 1017.7 - 0.2
22/09:00pm 14.1 13.2 9.3 73 2.4 W 4 6 2 3 1017.5 1017.5 0.2
22/08:30pm 14.4 13.5 9.2 71 2.7 SW 4 6 2 3 1017.3 - 0.2
22/08:00pm 14.8 14.0 9.6 71 2.7 SW 4 7 2 4 1017.1 1017.1 0.2
22/07:30pm 15.1 13.8 10.1 72 2.6 SSW 7 13 4 7 1016.9 - 0.2
22/07:00pm 15.1 13.5 10.3 73 2.5 SW 9 13 5 7 1016.7 1016.7 0.2
22/06:30pm 15.1 13.9 10.3 73 2.5 SW 7 13 4 7 1016.4 - 0.2
22/06:00pm 15.4 14.0 10.8 74 2.4 SW 9 17 5 9 1016.1 1016.1 0.2
22/05:30pm 15.6 13.8 10.8 73 2.5 SW 11 20 6 11 1015.6 - 0.2
22/05:00pm 15.7 14.4 11.3 75 2.4 SW 9 13 5 7 1015.3 1015.3 0.2
22/04:30pm 15.9 13.8 11.3 74 2.5 SW 13 22 7 12 1015.0 - 0.2
22/04:00pm 16.1 14.4 12.5 79 2.0 SW 13 19 7 10 1014.9 1014.9 0.2
22/03:30pm 15.5 15.4 13.9 90 0.9 SW 7 11 4 6 1014.8 - 0.2

Other Formats:

Comma delimited format used in spreadsheet applications
http://www.bom.gov.au/fwo/IDV60801/IDV60801.94892.axf

JavaScript Object Notation format (JSON) in row-major order
http://www.bom.gov.au/fwo/IDV60801/IDV60801.94892.json